EDDK/CGN METAR and TAF weather

Enter ICAO airport designator
Station Type Date Time Source
EDDK METAR 2019/02/21 15:50 UTC NOAA

EDDK 211550Z 30004KT 9999 FEW029 BKN040 12/06 Q1027 NOSIG


Station Type Date Time Source
EDDK Decoded METAR 2019/02/21 15:50 UTC NOAA

Koeln / Bonn, Germany (EDDK) 50-52N 007-10E 100M
Feb 21, 2019 - 10:50 AM EST / 2019.02.21 1550 UTC
Wind: from the WNW (300 degrees) at 5 MPH (4 KT):0
Visibility: greater than 7 mile(s):0
Sky conditions: mostly cloudy
Temperature: 53 F (12 C)
Dew Point: 42 F (6 C)
Relative Humidity: 66%
Pressure (altimeter): 30.33 in. Hg (1027 hPa)
ob: EDDK 211550Z 30004KT 9999 FEW029 BKN040 12/06 Q1027 NOSIG
cycle: 16

Station Type Date Time Source
EDDK TAF 2019/02/21 12:27 UTC NOAA

TAF EDDK 211100Z 2112/2218 21005KT 9999 SCT040
BECMG 2112/2114 27004KT
BECMG 2121/2124 BKN012
BECMG 2201/2204 4000 BR BKN007
TEMPO 2202/2209 1900 -DZRA OVC004
BECMG 2204/2208 33005KT
TEMPO 2209/2212 6000 BKN012
BECMG 2212/2215 05005KT 9999 BKN025


Example: see airport list